createdAt,value
2018-05-21T00:01:24.631Z,14.60
2018-05-21T00:03:55.186Z,14.50
2018-05-21T00:06:24.102Z,14.50
2018-05-21T00:08:58.085Z,14.40
2018-05-21T00:11:28.561Z,14.40
2018-05-21T00:13:57.009Z,14.40
2018-05-21T00:16:29.257Z,14.30
2018-05-21T00:18:59.090Z,14.30
2018-05-21T00:21:27.008Z,14.30
2018-05-21T00:24:00.026Z,14.30
2018-05-21T00:26:27.669Z,14.20
2018-05-21T00:28:55.481Z,14.20
2018-05-21T00:31:23.228Z,14.20
2018-05-21T00:33:53.245Z,14.20
2018-05-21T00:36:26.619Z,14.10
2018-05-21T00:38:54.421Z,14.10
2018-05-21T00:41:22.053Z,14.10
2018-05-21T00:43:50.371Z,14.00
2018-05-21T00:46:19.314Z,14.00
2018-05-21T00:48:47.092Z,14.00
2018-05-21T00:51:14.825Z,13.90
2018-05-21T00:53:43.538Z,13.90
2018-05-21T00:56:11.248Z,13.80
2018-05-21T00:58:39.805Z,13.70
2018-05-21T01:01:08.216Z,13.60
2018-05-21T01:03:35.907Z,13.50
2018-05-21T01:06:06.087Z,13.40
2018-05-21T01:08:34.065Z,13.40
2018-05-21T01:11:02.610Z,13.50
2018-05-21T01:13:31.584Z,13.50
2018-05-21T01:15:59.981Z,13.40
2018-05-21T01:18:27.727Z,13.50
2018-05-21T01:20:55.331Z,13.40
2018-05-21T01:23:22.944Z,13.50
2018-05-21T01:25:51.438Z,13.50
2018-05-21T01:28:19.163Z,13.50
2018-05-21T01:30:49.225Z,13.50
2018-05-21T01:33:17.732Z,13.40
2018-05-21T01:35:45.369Z,13.40
2018-05-21T01:38:13.001Z,13.40
2018-05-21T01:40:40.646Z,13.30
2018-05-21T01:43:08.316Z,13.30
2018-05-21T01:45:35.964Z,13.20
2018-05-21T01:48:04.304Z,13.20
2018-05-21T01:50:33.987Z,13.20
2018-05-21T01:53:01.689Z,13.20
2018-05-21T01:55:30.076Z,13.10
2018-05-21T01:57:58.002Z,13.00
2018-05-21T02:00:33.136Z,13.00
2018-05-21T02:03:01.969Z,12.90
2018-05-21T02:05:31.181Z,12.90
2018-05-21T02:07:58.932Z,12.80
2018-05-21T02:10:27.320Z,12.90
2018-05-21T02:12:56.084Z,12.90
2018-05-21T02:15:24.525Z,12.80
2018-05-21T02:17:53.514Z,12.80
2018-05-21T02:20:22.656Z,12.70
2018-05-21T02:22:51.998Z,12.70
2018-05-21T02:25:19.651Z,12.60
2018-05-21T02:27:47.839Z,12.70
2018-05-21T02:30:17.068Z,12.60
2018-05-21T02:32:44.679Z,12.60
2018-05-21T02:35:12.332Z,12.60
2018-05-21T02:37:40.797Z,12.60
2018-05-21T02:40:08.443Z,12.50
2018-05-21T02:42:37.170Z,12.50
2018-05-21T02:45:05.778Z,12.50
2018-05-21T02:47:33.688Z,12.50
2018-05-21T02:50:01.349Z,12.50
2018-05-21T02:52:28.978Z,12.50
2018-05-21T02:54:56.619Z,12.40
2018-05-21T02:57:25.837Z,12.40
2018-05-21T02:59:55.383Z,12.40
2018-05-21T03:02:24.837Z,12.40
2018-05-21T03:04:52.521Z,12.40
2018-05-21T03:07:23.245Z,12.40
2018-05-21T03:09:52.641Z,12.40
2018-05-21T03:12:24.110Z,12.30
2018-05-21T03:14:59.753Z,12.20
2018-05-21T03:17:27.391Z,12.10
2018-05-21T03:19:57.704Z,12.20
2018-05-21T03:22:28.180Z,12.10
2018-05-21T03:24:56.772Z,12.10
2018-05-21T03:27:25.010Z,12.10
2018-05-21T03:29:55.325Z,12.10
2018-05-21T03:32:26.315Z,12.10
2018-05-21T03:34:55.513Z,12.00
2018-05-21T03:37:24.401Z,12.00
2018-05-21T03:39:52.794Z,12.00
2018-05-21T03:42:20.498Z,12.00
2018-05-21T03:44:48.120Z,12.00
2018-05-21T03:47:15.739Z,11.90
2018-05-21T03:49:43.402Z,11.90
2018-05-21T03:52:11.798Z,11.80
2018-05-21T03:54:39.757Z,11.80
2018-05-21T03:57:07.370Z,11.80
2018-05-21T03:59:47.456Z,11.80
2018-05-21T04:02:27.517Z,11.80
2018-05-21T04:04:55.869Z,11.70
2018-05-21T04:07:26.080Z,11.80
2018-05-21T04:09:53.894Z,11.80
2018-05-21T04:12:25.322Z,11.80
2018-05-21T04:14:54.224Z,11.70
2018-05-21T04:17:22.845Z,11.80
2018-05-21T04:19:51.419Z,11.70
2018-05-21T04:22:20.385Z,11.70
2018-05-21T04:24:48.005Z,11.70
2018-05-21T04:27:16.588Z,11.70
2018-05-21T04:29:44.209Z,11.70
2018-05-21T04:32:11.882Z,11.70
2018-05-21T04:34:41.888Z,11.80
2018-05-21T04:37:09.562Z,11.70
2018-05-21T04:39:38.195Z,11.70
2018-05-21T04:42:06.599Z,11.80
2018-05-21T04:44:35.038Z,11.80
2018-05-21T04:47:10.165Z,11.90
2018-05-21T04:49:37.897Z,11.90
2018-05-21T04:52:05.472Z,11.90
2018-05-21T04:54:33.818Z,12.00
2018-05-21T04:57:01.424Z,11.90
2018-05-21T04:59:29.455Z,12.00
2018-05-21T05:01:57.176Z,12.10
2018-05-21T05:04:25.357Z,12.10
2018-05-21T05:06:54.063Z,12.20
2018-05-21T05:09:23.729Z,12.20
2018-05-21T05:11:56.653Z,12.30
2018-05-21T05:14:25.717Z,12.30
2018-05-21T05:16:55.653Z,12.40
2018-05-21T05:19:25.678Z,12.60
2018-05-21T05:21:54.183Z,12.50
2018-05-21T05:24:22.160Z,12.60
2018-05-21T05:26:52.732Z,12.70
2018-05-21T05:29:24.663Z,12.80
2018-05-21T05:31:59.278Z,12.70
2018-05-21T05:34:28.527Z,12.90
2018-05-21T05:36:57.535Z,12.80
2018-05-21T05:39:26.674Z,13.00
2018-05-21T05:41:55.168Z,13.00
2018-05-21T05:44:23.536Z,13.00
2018-05-21T05:46:52.487Z,13.10
2018-05-21T05:54:45.673Z,13.30
2018-05-21T05:57:13.314Z,13.30
2018-05-21T05:59:40.939Z,13.40
2018-05-21T06:02:08.571Z,13.50
2018-05-21T06:04:36.161Z,13.50
2018-05-21T06:07:19.426Z,13.60
2018-05-21T06:15:09.537Z,13.80
2018-05-21T06:17:37.148Z,13.90
2018-05-21T06:20:04.790Z,13.90
2018-05-21T06:22:33.188Z,14.00
2018-05-21T06:25:00.819Z,14.00
2018-05-21T06:27:28.452Z,14.10
2018-05-21T06:29:56.101Z,14.10
2018-05-21T06:32:23.729Z,14.20
2018-05-21T06:34:51.340Z,14.20
2018-05-21T06:37:18.942Z,14.30
2018-05-21T06:39:47.317Z,14.50
2018-05-21T06:42:14.909Z,14.40
2018-05-21T06:44:43.293Z,14.50
2018-05-21T06:48:05.889Z,14.60
2018-05-21T06:50:33.526Z,14.60
2018-05-21T06:53:01.148Z,14.60
2018-05-21T06:55:28.824Z,14.70
2018-05-21T06:57:57.955Z,14.80
2018-05-21T07:00:26.346Z,14.90
2018-05-21T07:02:53.995Z,14.90
2018-05-21T07:05:21.819Z,15.00
2018-05-21T07:07:49.538Z,15.10
2018-05-21T07:10:17.946Z,15.20
2018-05-21T07:12:46.320Z,15.30
2018-05-21T07:15:13.929Z,15.30
2018-05-21T07:17:42.401Z,15.50
2018-05-21T07:20:10.041Z,15.50
2018-05-21T07:22:39.509Z,15.70
2018-05-21T07:25:07.119Z,15.60
2018-05-21T07:27:34.721Z,15.70
2018-05-21T07:33:00.816Z,15.90
2018-05-21T07:35:29.364Z,16.10
2018-05-21T07:37:59.750Z,16.00
2018-05-21T07:40:27.406Z,16.20
2018-05-21T07:42:55.413Z,16.20
2018-05-21T07:45:24.901Z,16.40
2018-05-21T07:47:53.791Z,16.60
2018-05-21T07:50:22.055Z,16.50
2018-05-21T07:52:50.117Z,16.60
2018-05-21T07:55:18.474Z,16.80
2018-05-21T07:57:46.041Z,16.70
2018-05-21T08:00:27.850Z,16.90
2018-05-21T08:02:55.679Z,17.10
2018-05-21T08:05:25.038Z,17.20
2018-05-21T08:07:53.894Z,17.30
2018-05-21T08:10:22.274Z,17.40
2018-05-21T08:12:54.979Z,17.70
2018-05-21T08:15:25.554Z,17.70
2018-05-21T08:17:58.751Z,17.80
2018-05-21T08:20:27.203Z,18.10
2018-05-21T08:22:55.223Z,18.00
2018-05-21T08:25:26.820Z,18.10
2018-05-21T08:27:55.768Z,18.30
2018-05-21T08:30:26.244Z,18.30
2018-05-21T08:32:55.359Z,18.50
2018-05-21T08:35:24.055Z,18.60
2018-05-21T08:37:52.518Z,18.70
2018-05-21T08:40:27.611Z,19.00
2018-05-21T08:42:59.372Z,18.90
2018-05-21T08:45:30.014Z,19.00
2018-05-21T08:47:58.986Z,19.20
2018-05-21T08:50:27.551Z,19.20
2018-05-21T08:52:55.946Z,19.30
2018-05-21T08:55:24.416Z,19.50
2018-05-21T09:00:32.737Z,19.60
2018-05-21T09:03:00.246Z,19.60
2018-05-21T09:05:28.833Z,19.70
2018-05-21T09:07:58.493Z,19.90
2018-05-21T09:10:28.883Z,19.80
2018-05-21T09:12:57.794Z,20.00
2018-05-21T09:15:25.474Z,20.10
2018-05-21T09:17:54.264Z,20.30
2018-05-21T09:20:21.971Z,20.30
2018-05-21T09:22:50.974Z,20.40
2018-05-21T09:25:18.603Z,20.50
2018-05-21T09:27:48.072Z,20.70
2018-05-21T09:30:15.670Z,20.60
2018-05-21T09:32:44.117Z,20.80
2018-05-21T09:35:12.111Z,20.70
2018-05-21T09:37:40.579Z,21.00
2018-05-21T09:40:08.205Z,20.90
2018-05-21T09:42:35.872Z,21.10
2018-05-21T09:45:06.853Z,21.10
2018-05-21T09:47:36.704Z,21.30
2018-05-21T09:50:06.136Z,21.30
2018-05-21T09:52:34.969Z,21.20
2018-05-21T09:55:04.296Z,21.40
2018-05-21T09:57:32.214Z,21.40
2018-05-21T10:00:00.617Z,21.70
2018-05-21T10:02:28.650Z,21.60
2018-05-21T10:04:56.358Z,21.80
2018-05-21T10:07:25.016Z,21.90
2018-05-21T10:09:54.945Z,22.00
2018-05-21T10:12:24.274Z,22.10
2018-05-21T10:14:53.973Z,22.10
2018-05-21T10:17:23.781Z,22.20
2018-05-21T10:19:53.673Z,22.20
2018-05-21T10:22:22.918Z,22.30
2018-05-21T10:24:50.654Z,22.30
2018-05-21T10:27:18.275Z,22.50
2018-05-21T10:29:47.682Z,22.70
2018-05-21T10:32:16.160Z,22.70
2018-05-21T10:34:43.834Z,22.80
2018-05-21T10:37:12.123Z,22.90
2018-05-21T10:39:40.514Z,23.00
2018-05-21T10:42:09.204Z,23.10
2018-05-21T10:44:37.377Z,23.00
2018-05-21T10:47:05.845Z,23.20
2018-05-21T10:49:34.528Z,23.30
2018-05-21T10:52:03.628Z,23.40
2018-05-21T10:54:31.694Z,23.30
2018-05-21T10:56:59.765Z,23.50
2018-05-21T10:59:27.552Z,23.60
2018-05-21T11:01:56.790Z,23.80
2018-05-21T11:04:26.493Z,23.80
2018-05-21T11:06:56.368Z,24.00
2018-05-21T11:09:24.576Z,24.00
2018-05-21T11:11:54.134Z,24.00
2018-05-21T11:14:27.418Z,24.10
2018-05-21T11:16:56.834Z,24.20
2018-05-21T11:19:24.535Z,24.20
2018-05-21T11:21:52.853Z,24.30
2018-05-21T11:24:21.661Z,24.30
2018-05-21T11:26:57.870Z,24.50
2018-05-21T11:29:27.272Z,24.40
2018-05-21T11:31:56.713Z,24.50
2018-05-21T11:34:24.999Z,24.60
2018-05-21T11:36:54.274Z,24.70
2018-05-21T11:39:22.855Z,24.80
2018-05-21T11:41:50.515Z,24.90
2018-05-21T11:44:18.540Z,25.00
2018-05-21T11:46:47.007Z,25.10
2018-05-21T11:49:15.363Z,25.10
2018-05-21T11:51:44.242Z,25.20
2018-05-21T11:54:11.946Z,25.10
2018-05-21T11:56:40.759Z,25.10
2018-05-21T11:59:08.529Z,25.30
2018-05-21T12:01:37.056Z,25.40
2018-05-21T12:04:04.756Z,25.50
2018-05-21T12:06:32.455Z,25.60
2018-05-21T12:09:01.047Z,25.70
2018-05-21T12:11:31.289Z,25.70
2018-05-21T12:14:08.775Z,25.80
2018-05-21T12:16:36.394Z,25.80
2018-05-21T12:19:04.069Z,25.90
2018-05-21T12:21:31.808Z,25.90
2018-05-21T12:24:04.371Z,26.00
2018-05-21T12:26:32.763Z,26.10
2018-05-21T12:29:04.435Z,26.10
2018-05-21T12:31:32.168Z,26.20
2018-05-21T12:34:01.415Z,26.30
2018-05-21T12:36:31.808Z,26.30
2018-05-21T12:39:03.340Z,26.40
2018-05-21T12:41:33.935Z,26.40
2018-05-21T12:44:02.526Z,26.50
2018-05-21T12:46:30.846Z,26.60
2018-05-21T12:48:58.991Z,26.60
2018-05-21T12:51:26.789Z,26.60
2018-05-21T12:53:54.498Z,26.60
2018-05-21T12:56:23.667Z,26.70
2018-05-21T12:58:51.277Z,26.60
2018-05-21T13:01:18.913Z,26.70
2018-05-21T13:03:47.215Z,26.70
2018-05-21T13:06:14.871Z,26.70
2018-05-21T13:08:42.510Z,26.80
2018-05-21T13:11:10.115Z,26.90
2018-05-21T13:13:39.514Z,27.00
2018-05-21T13:16:07.133Z,27.10
2018-05-21T13:18:40.280Z,27.10
2018-05-21T13:21:18.266Z,27.10
2018-05-21T13:23:48.711Z,27.20
2018-05-21T13:26:20.852Z,27.20
2018-05-21T13:28:50.455Z,27.30
2018-05-21T13:31:22.450Z,27.30
2018-05-21T13:33:51.268Z,27.30
2018-05-21T13:36:19.726Z,27.40
2018-05-21T13:38:47.306Z,27.40
2018-05-21T13:41:14.922Z,27.50
2018-05-21T13:43:42.552Z,27.40
2018-05-21T13:46:10.179Z,27.40
2018-05-21T13:48:38.242Z,27.50
2018-05-21T13:51:05.927Z,27.60
2018-05-21T13:53:34.744Z,27.70
2018-05-21T13:56:03.452Z,27.90
2018-05-21T13:58:35.896Z,28.00
2018-05-21T14:01:07.156Z,28.10
2018-05-21T14:03:34.918Z,28.10
2018-05-21T14:06:06.052Z,28.20
2018-05-21T14:08:35.416Z,28.20
2018-05-21T14:11:03.011Z,28.20
2018-05-21T14:13:32.683Z,28.20
2018-05-21T14:16:02.359Z,28.40
2018-05-21T14:18:30.821Z,28.50
2018-05-21T14:21:01.237Z,28.40
2018-05-21T14:23:31.762Z,28.60
2018-05-21T14:26:01.734Z,28.70
2018-05-21T14:28:31.029Z,28.70
2018-05-21T14:31:03.694Z,28.80
2018-05-21T14:33:35.454Z,28.90
2018-05-21T14:36:03.659Z,28.80
2018-05-21T14:38:34.301Z,28.90
2018-05-21T14:41:02.601Z,29.00
2018-05-21T14:43:32.599Z,28.90
2018-05-21T14:46:00.251Z,28.90
2018-05-21T14:48:29.648Z,29.00
2018-05-21T14:51:05.034Z,29.00
2018-05-21T14:53:37.328Z,29.10
2018-05-21T14:56:06.498Z,29.50
2018-05-21T14:58:34.768Z,29.40
2018-05-21T15:01:03.495Z,29.60
2018-05-21T15:03:32.550Z,29.50
2018-05-21T15:06:03.108Z,29.50
2018-05-21T15:08:30.827Z,29.60
2018-05-21T15:11:00.066Z,29.70
2018-05-21T15:13:29.500Z,29.70
2018-05-21T15:16:00.802Z,29.70
2018-05-21T15:18:30.356Z,29.90
2018-05-21T15:21:00.062Z,29.80
2018-05-21T15:23:29.279Z,30.00
2018-05-21T15:25:58.202Z,30.00
2018-05-21T15:28:28.076Z,30.00
2018-05-21T15:31:02.668Z,29.90
2018-05-21T15:33:31.184Z,30.00
2018-05-21T15:36:02.317Z,30.10
2018-05-21T15:38:34.254Z,30.00
2018-05-21T15:41:02.783Z,30.00
2018-05-21T15:43:35.445Z,30.10
2018-05-21T15:46:05.609Z,30.20
2018-05-21T15:48:34.381Z,30.20
2018-05-21T15:51:04.442Z,30.30
2018-05-21T15:53:33.816Z,30.30
2018-05-21T15:56:03.479Z,30.30
2018-05-21T15:58:33.733Z,30.30
2018-05-21T16:01:03.081Z,30.30
2018-05-21T16:03:34.354Z,30.10
2018-05-21T16:06:04.849Z,30.10
2018-05-21T16:08:33.538Z,30.10
2018-05-21T16:11:02.109Z,30.10
2018-05-21T16:13:31.754Z,30.10
2018-05-21T16:16:04.318Z,30.30
2018-05-21T16:18:32.132Z,30.40
2018-05-21T16:21:01.626Z,30.40
2018-05-21T16:23:32.647Z,30.40
2018-05-21T16:26:05.255Z,30.40
2018-05-21T16:31:06.195Z,30.40
2018-05-21T16:33:35.765Z,30.50
2018-05-21T16:36:04.436Z,30.40
2018-05-21T16:38:33.231Z,30.60
2018-05-21T16:41:01.333Z,30.60
2018-05-21T16:43:31.235Z,30.50
2018-05-21T16:45:59.638Z,30.40
2018-05-21T16:48:30.922Z,30.30
2018-05-21T16:51:01.380Z,30.10
2018-05-21T16:53:35.435Z,29.90
2018-05-21T16:56:05.046Z,29.80
2018-05-21T16:58:36.399Z,29.70
2018-05-21T17:01:04.856Z,29.60
2018-05-21T17:03:34.953Z,29.40
2018-05-21T17:06:07.210Z,29.40
2018-05-21T17:08:41.578Z,29.40
2018-05-21T17:11:10.770Z,29.50
2018-05-21T17:13:39.414Z,29.50
2018-05-21T17:16:08.216Z,29.40
2018-05-21T17:18:35.920Z,29.50
2018-05-21T17:21:04.562Z,29.40
2018-05-21T17:23:34.004Z,29.00
2018-05-21T17:26:04.218Z,28.90
2018-05-21T17:28:32.165Z,28.90
2018-05-21T17:31:06.337Z,28.90
2018-05-21T17:33:34.427Z,29.00
2018-05-21T17:36:03.065Z,29.00
2018-05-21T17:38:30.762Z,28.80
2018-05-21T17:40:59.577Z,28.70
2018-05-21T17:43:29.829Z,28.60
2018-05-21T17:45:59.800Z,28.30
2018-05-21T17:48:28.317Z,28.20
2018-05-21T17:50:55.999Z,28.00
2018-05-21T17:53:25.295Z,27.90
2018-05-21T17:55:53.771Z,27.60
2018-05-21T17:58:23.935Z,27.20
2018-05-21T18:00:52.747Z,27.00
2018-05-21T18:03:20.441Z,26.70
2018-05-21T18:05:49.029Z,26.50
2018-05-21T18:08:18.482Z,25.90
2018-05-21T18:10:46.449Z,25.90
2018-05-21T18:13:15.669Z,25.80
2018-05-21T18:15:43.539Z,25.60
2018-05-21T18:18:11.242Z,25.50
2018-05-21T18:20:39.777Z,25.40
2018-05-21T18:23:07.927Z,25.20
2018-05-21T18:25:36.610Z,24.90
2018-05-21T18:28:04.243Z,24.80
2018-05-21T18:30:33.263Z,24.70
2018-05-21T18:33:01.003Z,24.50
2018-05-21T18:35:36.729Z,24.30
2018-05-21T18:38:05.592Z,24.20
2018-05-21T18:40:34.005Z,23.90
2018-05-21T18:43:02.393Z,23.80
2018-05-21T18:45:30.061Z,23.80
2018-05-21T18:47:59.686Z,23.60
2018-05-21T18:50:30.129Z,23.40
2018-05-21T18:53:01.102Z,23.40
2018-05-21T18:58:07.989Z,23.10
2018-05-21T19:00:40.096Z,23.00
2018-05-21T19:03:08.752Z,23.00
2018-05-21T19:05:37.205Z,22.80
2018-05-21T19:08:05.634Z,22.60
2018-05-21T19:10:33.303Z,22.60
2018-05-21T19:13:01.082Z,22.60
2018-05-21T19:15:29.494Z,22.40
2018-05-21T19:17:57.973Z,22.40
2018-05-21T19:20:26.443Z,22.20
2018-05-21T19:22:54.351Z,22.10
2018-05-21T19:25:23.184Z,22.00
2018-05-21T19:27:52.004Z,21.90
2018-05-21T19:30:20.577Z,21.80
2018-05-21T19:32:48.361Z,21.70
2018-05-21T19:35:16.401Z,21.70
2018-05-21T19:37:47.026Z,21.60
2018-05-21T19:40:17.251Z,21.60
2018-05-21T19:42:46.755Z,21.50
2018-05-21T19:45:14.393Z,21.40
2018-05-21T19:47:42.209Z,21.30
2018-05-21T19:50:11.178Z,21.20
2018-05-21T19:52:40.050Z,21.10
2018-05-21T19:55:09.132Z,21.00
2018-05-21T19:57:36.873Z,21.00
2018-05-21T20:00:04.603Z,20.90
2018-05-21T20:02:33.266Z,20.70
2018-05-21T20:05:03.225Z,20.60
2018-05-21T20:07:32.231Z,20.60
2018-05-21T20:10:00.028Z,20.60
2018-05-21T20:12:31.487Z,20.40
2018-05-21T20:15:03.836Z,20.40
2018-05-21T20:17:34.273Z,20.30
2018-05-21T20:20:04.379Z,20.20
2018-05-21T20:22:34.686Z,20.10
2018-05-21T20:25:04.744Z,20.00
2018-05-21T20:27:32.889Z,19.90
2018-05-21T20:30:03.109Z,19.90
2018-05-21T20:32:33.171Z,19.80
2018-05-21T20:35:01.679Z,19.80
2018-05-21T20:37:33.888Z,19.80
2018-05-21T20:40:02.559Z,19.70
2018-05-21T20:42:32.691Z,19.60
2018-05-21T20:45:03.004Z,19.50
2018-05-21T20:47:31.465Z,19.50
2018-05-21T20:50:05.119Z,19.50
2018-05-21T20:52:34.875Z,19.40
2018-05-21T20:55:05.120Z,19.40
2018-05-21T20:57:36.275Z,19.30
2018-05-21T21:00:03.974Z,19.20
2018-05-21T21:02:33.296Z,19.10
2018-05-21T21:05:01.202Z,19.10
2018-05-21T21:07:35.234Z,19.00
2018-05-21T21:10:04.663Z,19.00
2018-05-21T21:12:35.565Z,18.90
2018-05-21T21:15:04.372Z,18.80
2018-05-21T21:17:36.151Z,18.80
2018-05-21T21:20:06.521Z,18.70
2018-05-21T21:22:39.189Z,18.70
2018-05-21T21:25:06.828Z,18.60
2018-05-21T21:27:35.481Z,18.60
2018-05-21T21:30:06.664Z,18.50
2018-05-21T21:32:34.338Z,18.50
2018-05-21T21:35:03.461Z,18.50
2018-05-21T21:37:34.927Z,18.40
2018-05-21T21:40:06.313Z,18.30
2018-05-21T21:42:35.352Z,18.30
2018-05-21T21:45:04.172Z,18.30
2018-05-21T21:47:38.185Z,18.20
2018-05-21T21:50:07.084Z,18.20
2018-05-21T21:52:34.892Z,18.10
2018-05-21T21:55:02.609Z,18.10
2018-05-21T21:57:33.276Z,18.10
2018-05-21T22:00:03.871Z,18.00
2018-05-21T22:02:40.644Z,18.00
2018-05-21T22:05:09.615Z,18.00
2018-05-21T22:07:38.083Z,18.00
2018-05-21T22:10:06.959Z,18.00
2018-05-21T22:12:35.004Z,17.90
2018-05-21T22:15:03.586Z,17.90
2018-05-21T22:17:31.176Z,17.90
2018-05-21T22:19:59.375Z,17.80
2018-05-21T22:22:34.309Z,17.80
2018-05-21T22:25:03.094Z,17.70
2018-05-21T22:27:32.525Z,17.70
2018-05-21T22:30:00.216Z,17.70
2018-05-21T22:32:37.074Z,17.70
2018-05-21T22:35:07.291Z,17.60
2018-05-21T22:37:39.446Z,17.60
2018-05-21T22:40:08.163Z,17.60
2018-05-21T22:42:36.698Z,17.50
2018-05-21T22:45:05.481Z,17.50
2018-05-21T22:47:34.968Z,17.50
2018-05-21T22:50:05.193Z,17.40
2018-05-21T22:52:35.809Z,17.40
2018-05-21T22:55:05.234Z,17.30
2018-05-21T22:57:36.221Z,17.30
2018-05-21T23:00:09.516Z,17.30
2018-05-21T23:02:42.577Z,17.30
2018-05-21T23:05:11.114Z,17.30
2018-05-21T23:07:38.906Z,17.20
2018-05-21T23:10:09.710Z,17.20
2018-05-21T23:12:37.534Z,17.20
2018-05-21T23:15:07.983Z,17.10
2018-05-21T23:17:37.173Z,17.10
2018-05-21T23:20:07.516Z,17.10
2018-05-21T23:22:51.441Z,17.10
2018-05-21T23:25:19.722Z,17.10
2018-05-21T23:27:47.299Z,17.00
2018-05-21T23:30:16.554Z,17.00
2018-05-21T23:32:44.292Z,17.00
2018-05-21T23:35:12.083Z,17.00
2018-05-21T23:37:40.796Z,17.00
2018-05-21T23:40:09.605Z,17.00
2018-05-21T23:42:37.668Z,17.00
2018-05-21T23:45:07.144Z,17.00
2018-05-21T23:47:36.565Z,16.90
2018-05-21T23:50:05.406Z,16.90
2018-05-21T23:52:36.968Z,16.90
2018-05-21T23:55:09.806Z,16.90
2018-05-21T23:57:38.385Z,16.80
